aviador You're here:

ZSSS Decoded Metar

SHANGHAI in CHINA
Report Time2017-09-26 12:30:00
UTC Time2017-09-26 12:43:52
Flight Rules vfr VFR
Wind240° at 4 kt
W.Decomp.*RWY 18: 1.7 kt HW 3.6 kt RCW
W.Rank240° ranks 30
Current wind is below 240° avg. (6.0)
Visibility9999 m
Phenomena:N/A
Clouds:N/A
Expected CloudBase > 1,600 ft AGL from Temp-Dew spread
CeilingNone
Temp30°C (ISA +15)
Dew Point26°C (79% RH)
Heat Index37.4°C
QNH1008 hPa
Density Alt2,356 ft
Elevation23 ft
Report Wrong Elevation
Raw Report
ZSSS 261230Z 24002MPS 210V270 CAVOK 30/26 Q1008 NOSIG=

Extra information for ZSSS:More info

Metar Taf Metar & Taf Last 4 Metars F.Rules Stats Wind Profile Meteogram Temp Stats Airport Information Weather charts Add Link Nearby VenuesMetar ALERT Operation Metar Decoded Social comments